sensor_id;sensor_type;location;lat;lon;timestamp;P1;durP1;ratioP1;P2;durP2;ratioP2
80987;SDS011;70452;39.386;-3.210;2023-12-20T00:02:20;26.88;;;11.07;;
80987;SDS011;70452;39.386;-3.210;2023-12-20T00:04:52;20.13;;;9.60;;
80987;SDS011;70452;39.386;-3.210;2023-12-20T00:07:30;23.88;;;9.43;;
80987;SDS011;70452;39.386;-3.210;2023-12-20T00:10:08;19.70;;;9.02;;
80987;SDS011;70452;39.386;-3.210;2023-12-20T00:12:44;20.27;;;10.07;;
80987;SDS011;70452;39.386;-3.210;2023-12-20T00:15:28;23.88;;;10.38;;
80987;SDS011;70452;39.386;-3.210;2023-12-20T00:18:32;20.55;;;8.75;;
80987;SDS011;70452;39.386;-3.210;2023-12-20T00:21:11;19.85;;;9.25;;
80987;SDS011;70452;39.386;-3.210;2023-12-20T00:26:49;18.05;;;8.93;;
80987;SDS011;70452;39.386;-3.210;2023-12-20T00:29:27;21.10;;;10.40;;
80987;SDS011;70452;39.386;-3.210;2023-12-20T00:32:02;20.30;;;8.95;;
80987;SDS011;70452;39.386;-3.210;2023-12-20T00:34:43;18.67;;;8.30;;
80987;SDS011;70452;39.386;-3.210;2023-12-20T00:37:29;16.92;;;8.45;;
80987;SDS011;70452;39.386;-3.210;2023-12-20T00:40:24;20.17;;;8.13;;
80987;SDS011;70452;39.386;-3.210;2023-12-20T00:43:10;17.80;;;7.90;;
80987;SDS011;70452;39.386;-3.210;2023-12-20T00:45:43;14.73;;;6.38;;
80987;SDS011;70452;39.386;-3.210;2023-12-20T00:48:21;14.13;;;5.65;;
80987;SDS011;70452;39.386;-3.210;2023-12-20T00:50:55;14.07;;;5.93;;
80987;SDS011;70452;39.386;-3.210;2023-12-20T00:53:32;13.20;;;5.43;;
80987;SDS011;70452;39.386;-3.210;2023-12-20T00:56:14;14.45;;;6.55;;
80987;SDS011;70452;39.386;-3.210;2023-12-20T00:58:49;15.32;;;5.75;;
80987;SDS011;70452;39.386;-3.210;2023-12-20T01:04:18;11.75;;;4.28;;
80987;SDS011;70452;39.386;-3.210;2023-12-20T01:06:54;11.50;;;4.47;;
80987;SDS011;70452;39.386;-3.210;2023-12-20T01:09:49;9.23;;;2.83;;
80987;SDS011;70452;39.386;-3.210;2023-12-20T01:12:22;10.40;;;3.40;;
80987;SDS011;70452;39.386;-3.210;2023-12-20T01:14:57;11.80;;;4.47;;
80987;SDS011;70452;39.386;-3.210;2023-12-20T01:17:30;10.05;;;2.83;;
80987;SDS011;70452;39.386;-3.210;2023-12-20T01:20:02;9.80;;;2.75;;
80987;SDS011;70452;39.386;-3.210;2023-12-20T01:22:53;10.23;;;4.75;;
80987;SDS011;70452;39.386;-3.210;2023-12-20T01:28:51;10.13;;;2.83;;
80987;SDS011;70452;39.386;-3.210;2023-12-20T01:34:50;9.43;;;3.13;;
80987;SDS011;70452;39.386;-3.210;2023-12-20T01:37:30;9.23;;;3.38;;
80987;SDS011;70452;39.386;-3.210;2023-12-20T01:40:20;10.25;;;3.88;;
80987;SDS011;70452;39.386;-3.210;2023-12-20T01:45:37;12.80;;;5.13;;
80987;SDS011;70452;39.386;-3.210;2023-12-20T01:48:24;19.35;;;6.55;;
80987;SDS011;70452;39.386;-3.210;2023-12-20T01:51:08;10.57;;;3.35;;
80987;SDS011;70452;39.386;-3.210;2023-12-20T01:53:50;7.25;;;2.42;;
80987;SDS011;70452;39.386;-3.210;2023-12-20T01:58:58;6.63;;;2.20;;
80987;SDS011;70452;39.386;-3.210;2023-12-20T02:01:29;8.57;;;3.22;;
80987;SDS011;70452;39.386;-3.210;2023-12-20T02:04:13;9.50;;;3.00;;
80987;SDS011;70452;39.386;-3.210;2023-12-20T02:06:55;6.05;;;2.28;;
80987;SDS011;70452;39.386;-3.210;2023-12-20T02:09:27;8.18;;;3.50;;
80987;SDS011;70452;39.386;-3.210;2023-12-20T02:12:44;7.63;;;2.80;;
80987;SDS011;70452;39.386;-3.210;2023-12-20T02:15:45;11.85;;;3.25;;
80987;SDS011;70452;39.386;-3.210;2023-12-20T02:18:22;10.52;;;2.75;;
80987;SDS011;70452;39.386;-3.210;2023-12-20T02:20:59;14.48;;;5.65;;
80987;SDS011;70452;39.386;-3.210;2023-12-20T02:23:37;10.35;;;2.65;;
80987;SDS011;70452;39.386;-3.210;2023-12-20T02:26:12;9.98;;;3.90;;
80987;SDS011;70452;39.386;-3.210;2023-12-20T02:28:44;9.15;;;4.40;;
80987;SDS011;70452;39.386;-3.210;2023-12-20T02:31:33;9.85;;;3.63;;
80987;SDS011;70452;39.386;-3.210;2023-12-20T02:34:01;7.68;;;2.63;;
80987;SDS011;70452;39.386;-3.210;2023-12-20T02:36:35;9.00;;;2.90;;
80987;SDS011;70452;39.386;-3.210;2023-12-20T02:42:27;8.77;;;3.70;;
80987;SDS011;70452;39.386;-3.210;2023-12-20T02:44:56;9.57;;;3.70;;
80987;SDS011;70452;39.386;-3.210;2023-12-20T02:47:37;6.28;;;2.38;;
80987;SDS011;70452;39.386;-3.210;2023-12-20T02:50:06;7.20;;;1.85;;
80987;SDS011;70452;39.386;-3.210;2023-12-20T02:52:56;6.68;;;2.42;;
80987;SDS011;70452;39.386;-3.210;2023-12-20T02:55:48;10.35;;;3.10;;
80987;SDS011;70452;39.386;-3.210;2023-12-20T02:58:30;6.20;;;1.88;;
80987;SDS011;70452;39.386;-3.210;2023-12-20T03:01:04;6.45;;;2.00;;
80987;SDS011;70452;39.386;-3.210;2023-12-20T03:03:36;11.30;;;4.40;;
80987;SDS011;70452;39.386;-3.210;2023-12-20T03:06:22;6.43;;;2.28;;
80987;SDS011;70452;39.386;-3.210;2023-12-20T03:11:38;4.57;;;1.20;;
80987;SDS011;70452;39.386;-3.210;2023-12-20T03:14:12;8.98;;;2.25;;
80987;SDS011;70452;39.386;-3.210;2023-12-20T03:16:50;5.38;;;1.73;;
80987;SDS011;70452;39.386;-3.210;2023-12-20T03:22:09;10.25;;;4.05;;
80987;SDS011;70452;39.386;-3.210;2023-12-20T03:24:46;13.25;;;2.05;;
80987;SDS011;70452;39.386;-3.210;2023-12-20T03:27:23;6.55;;;2.55;;
80987;SDS011;70452;39.386;-3.210;2023-12-20T03:29:59;9.05;;;3.25;;
80987;SDS011;70452;39.386;-3.210;2023-12-20T03:32:34;8.40;;;2.38;;
80987;SDS011;70452;39.386;-3.210;2023-12-20T03:35:13;9.23;;;2.95;;
80987;SDS011;70452;39.386;-3.210;2023-12-20T03:37:43;7.07;;;2.35;;
80987;SDS011;70452;39.386;-3.210;2023-12-20T03:40:28;23.02;;;5.85;;
80987;SDS011;70452;39.386;-3.210;2023-12-20T03:43:20;12.85;;;7.15;;
80987;SDS011;70452;39.386;-3.210;2023-12-20T03:46:02;13.07;;;3.88;;
80987;SDS011;70452;39.386;-3.210;2023-12-20T03:48:40;9.27;;;2.92;;
80987;SDS011;70452;39.386;-3.210;2023-12-20T03:51:37;5.53;;;1.50;;
80987;SDS011;70452;39.386;-3.210;2023-12-20T03:54:34;6.25;;;1.90;;
80987;SDS011;70452;39.386;-3.210;2023-12-20T03:57:03;9.15;;;2.38;;
80987;SDS011;70452;39.386;-3.210;2023-12-20T04:02:16;7.53;;;2.58;;
80987;SDS011;70452;39.386;-3.210;2023-12-20T04:05:20;3.72;;;1.42;;
80987;SDS011;70452;39.386;-3.210;2023-12-20T04:07:52;7.20;;;2.40;;
80987;SDS011;70452;39.386;-3.210;2023-12-20T04:13:31;7.57;;;2.80;;
80987;SDS011;70452;39.386;-3.210;2023-12-20T04:16:03;6.40;;;2.42;;
80987;SDS011;70452;39.386;-3.210;2023-12-20T04:18:50;11.00;;;4.32;;
80987;SDS011;70452;39.386;-3.210;2023-12-20T04:21:22;6.35;;;2.55;;
80987;SDS011;70452;39.386;-3.210;2023-12-20T04:24:21;14.38;;;4.85;;
80987;SDS011;70452;39.386;-3.210;2023-12-20T04:27:08;13.38;;;4.80;;
80987;SDS011;70452;39.386;-3.210;2023-12-20T04:29:53;8.43;;;2.67;;
80987;SDS011;70452;39.386;-3.210;2023-12-20T04:32:27;11.90;;;4.78;;
80987;SDS011;70452;39.386;-3.210;2023-12-20T04:35:23;11.68;;;3.80;;
80987;SDS011;70452;39.386;-3.210;2023-12-20T04:38:08;12.15;;;4.40;;
80987;SDS011;70452;39.386;-3.210;2023-12-20T04:40:46;10.02;;;3.15;;
80987;SDS011;70452;39.386;-3.210;2023-12-20T04:43:42;9.48;;;2.83;;
80987;SDS011;70452;39.386;-3.210;2023-12-20T04:46:30;13.10;;;5.30;;
80987;SDS011;70452;39.386;-3.210;2023-12-20T04:49:08;14.48;;;3.63;;
80987;SDS011;70452;39.386;-3.210;2023-12-20T04:51:51;8.95;;;3.10;;
80987;SDS011;70452;39.386;-3.210;2023-12-20T04:57:39;12.02;;;3.40;;
80987;SDS011;70452;39.386;-3.210;2023-12-20T05:00:11;12.68;;;4.13;;
80987;SDS011;70452;39.386;-3.210;2023-12-20T05:02:56;9.93;;;3.75;;
80987;SDS011;70452;39.386;-3.210;2023-12-20T05:05:45;12.43;;;4.95;;
80987;SDS011;70452;39.386;-3.210;2023-12-20T05:08:17;7.78;;;3.13;;
80987;SDS011;70452;39.386;-3.210;2023-12-20T05:10:59;8.52;;;3.22;;
80987;SDS011;70452;39.386;-3.210;2023-12-20T05:13:33;6.32;;;3.15;;
80987;SDS011;70452;39.386;-3.210;2023-12-20T05:16:11;11.25;;;2.50;;
80987;SDS011;70452;39.386;-3.210;2023-12-20T05:18:56;6.40;;;1.80;;
80987;SDS011;70452;39.386;-3.210;2023-12-20T05:21:40;10.05;;;3.42;;
80987;SDS011;70452;39.386;-3.210;2023-12-20T05:24:32;6.63;;;2.53;;
80987;SDS011;70452;39.386;-3.210;2023-12-20T05:29:46;10.45;;;4.18;;
80987;SDS011;70452;39.386;-3.210;2023-12-20T05:32:40;9.52;;;2.78;;
80987;SDS011;70452;39.386;-3.210;2023-12-20T05:35:25;13.38;;;4.97;;
80987;SDS011;70452;39.386;-3.210;2023-12-20T05:38:08;9.05;;;3.40;;
80987;SDS011;70452;39.386;-3.210;2023-12-20T05:40:47;13.77;;;3.45;;
80987;SDS011;70452;39.386;-3.210;2023-12-20T05:51:52;10.15;;;2.50;;
80987;SDS011;70452;39.386;-3.210;2023-12-20T05:54:35;7.85;;;2.60;;
80987;SDS011;70452;39.386;-3.210;2023-12-20T05:57:12;7.22;;;1.77;;
80987;SDS011;70452;39.386;-3.210;2023-12-20T05:59:54;12.43;;;3.22;;
80987;SDS011;70452;39.386;-3.210;2023-12-20T06:02:26;10.98;;;3.42;;
80987;SDS011;70452;39.386;-3.210;2023-12-20T06:04:58;9.20;;;3.30;;
80987;SDS011;70452;39.386;-3.210;2023-12-20T06:07:41;9.05;;;2.33;;
80987;SDS011;70452;39.386;-3.210;2023-12-20T06:10:16;7.80;;;2.20;;
80987;SDS011;70452;39.386;-3.210;2023-12-20T06:12:48;9.52;;;2.70;;
80987;SDS011;70452;39.386;-3.210;2023-12-20T06:15:33;7.32;;;2.30;;
80987;SDS011;70452;39.386;-3.210;2023-12-20T06:18:11;7.95;;;1.90;;
80987;SDS011;70452;39.386;-3.210;2023-12-20T06:20:55;8.07;;;2.58;;
80987;SDS011;70452;39.386;-3.210;2023-12-20T06:26:22;8.18;;;2.53;;
80987;SDS011;70452;39.386;-3.210;2023-12-20T06:28:59;7.78;;;2.25;;
80987;SDS011;70452;39.386;-3.210;2023-12-20T06:31:37;7.18;;;2.53;;
80987;SDS011;70452;39.386;-3.210;2023-12-20T06:34:09;8.02;;;2.13;;
80987;SDS011;70452;39.386;-3.210;2023-12-20T06:36:42;10.07;;;2.55;;
80987;SDS011;70452;39.386;-3.210;2023-12-20T06:39:17;5.97;;;1.73;;
80987;SDS011;70452;39.386;-3.210;2023-12-20T06:42:02;6.95;;;2.38;;
80987;SDS011;70452;39.386;-3.210;2023-12-20T06:44:31;7.95;;;2.10;;
80987;SDS011;70452;39.386;-3.210;2023-12-20T06:47:06;8.30;;;2.35;;
80987;SDS011;70452;39.386;-3.210;2023-12-20T06:49:47;7.40;;;2.10;;
80987;SDS011;70452;39.386;-3.210;2023-12-20T06:52:41;10.02;;;2.72;;
80987;SDS011;70452;39.386;-3.210;2023-12-20T06:55:16;6.30;;;2.15;;
80987;SDS011;70452;39.386;-3.210;2023-12-20T06:57:56;9.20;;;2.60;;
80987;SDS011;70452;39.386;-3.210;2023-12-20T07:00:32;7.50;;;2.42;;
80987;SDS011;70452;39.386;-3.210;2023-12-20T07:03:19;8.68;;;2.33;;
80987;SDS011;70452;39.386;-3.210;2023-12-20T07:06:00;10.13;;;2.70;;
80987;SDS011;70452;39.386;-3.210;2023-12-20T07:08:36;12.80;;;3.10;;
80987;SDS011;70452;39.386;-3.210;2023-12-20T07:11:12;13.05;;;5.30;;
80987;SDS011;70452;39.386;-3.210;2023-12-20T07:13:46;17.35;;;9.27;;
80987;SDS011;70452;39.386;-3.210;2023-12-20T07:16:29;15.13;;;4.32;;
80987;SDS011;70452;39.386;-3.210;2023-12-20T07:19:09;13.55;;;4.25;;
80987;SDS011;70452;39.386;-3.210;2023-12-20T07:21:41;15.88;;;4.80;;
80987;SDS011;70452;39.386;-3.210;2023-12-20T07:24:13;12.77;;;4.15;;
80987;SDS011;70452;39.386;-3.210;2023-12-20T07:26:47;14.23;;;4.63;;
80987;SDS011;70452;39.386;-3.210;2023-12-20T07:29:17;19.00;;;6.90;;
80987;SDS011;70452;39.386;-3.210;2023-12-20T07:31:56;12.38;;;5.22;;
80987;SDS011;70452;39.386;-3.210;2023-12-20T07:34:32;16.70;;;5.60;;
80987;SDS011;70452;39.386;-3.210;2023-12-20T07:37:06;17.25;;;6.50;;
80987;SDS011;70452;39.386;-3.210;2023-12-20T07:42:09;16.10;;;6.75;;
80987;SDS011;70452;39.386;-3.210;2023-12-20T07:44:41;15.95;;;6.15;;
80987;SDS011;70452;39.386;-3.210;2023-12-20T07:47:28;18.85;;;7.63;;
80987;SDS011;70452;39.386;-3.210;2023-12-20T07:50:01;17.73;;;8.27;;
80987;SDS011;70452;39.386;-3.210;2023-12-20T07:52:35;18.55;;;8.90;;
80987;SDS011;70452;39.386;-3.210;2023-12-20T07:55:21;17.52;;;8.30;;
80987;SDS011;70452;39.386;-3.210;2023-12-20T07:57:50;18.88;;;9.23;;
80987;SDS011;70452;39.386;-3.210;2023-12-20T08:00:32;22.55;;;9.25;;
80987;SDS011;70452;39.386;-3.210;2023-12-20T08:03:01;25.73;;;9.70;;
80987;SDS011;70452;39.386;-3.210;2023-12-20T08:05:45;28.95;;;10.68;;
80987;SDS011;70452;39.386;-3.210;2023-12-20T08:08:15;29.60;;;12.80;;
80987;SDS011;70452;39.386;-3.210;2023-12-20T08:10:52;28.67;;;11.80;;
80987;SDS011;70452;39.386;-3.210;2023-12-20T08:13:54;24.95;;;10.93;;
80987;SDS011;70452;39.386;-3.210;2023-12-20T08:16:28;24.83;;;10.25;;
80987;SDS011;70452;39.386;-3.210;2023-12-20T08:19:06;22.65;;;10.15;;
80987;SDS011;70452;39.386;-3.210;2023-12-20T08:21:46;26.05;;;11.68;;
80987;SDS011;70452;39.386;-3.210;2023-12-20T08:24:15;27.85;;;14.13;;
80987;SDS011;70452;39.386;-3.210;2023-12-20T08:27:06;26.67;;;11.90;;
80987;SDS011;70452;39.386;-3.210;2023-12-20T08:29:34;21.17;;;9.98;;
80987;SDS011;70452;39.386;-3.210;2023-12-20T08:32:12;20.77;;;8.98;;
80987;SDS011;70452;39.386;-3.210;2023-12-20T08:34:53;20.17;;;8.75;;
80987;SDS011;70452;39.386;-3.210;2023-12-20T08:37:28;22.95;;;11.48;;
80987;SDS011;70452;39.386;-3.210;2023-12-20T08:39:55;30.77;;;14.60;;
80987;SDS011;70452;39.386;-3.210;2023-12-20T08:42:30;32.33;;;13.48;;
80987;SDS011;70452;39.386;-3.210;2023-12-20T08:45:07;27.08;;;16.45;;
80987;SDS011;70452;39.386;-3.210;2023-12-20T08:47:58;16.65;;;9.45;;
80987;SDS011;70452;39.386;-3.210;2023-12-20T08:50:31;23.27;;;14.45;;
80987;SDS011;70452;39.386;-3.210;2023-12-20T08:53:09;49.00;;;31.67;;
80987;SDS011;70452;39.386;-3.210;2023-12-20T08:55:42;44.22;;;27.67;;
80987;SDS011;70452;39.386;-3.210;2023-12-20T08:58:16;31.60;;;18.65;;
80987;SDS011;70452;39.386;-3.210;2023-12-20T09:00:45;21.67;;;10.48;;
80987;SDS011;70452;39.386;-3.210;2023-12-20T09:03:38;21.88;;;8.55;;
80987;SDS011;70452;39.386;-3.210;2023-12-20T09:06:16;17.05;;;8.05;;
80987;SDS011;70452;39.386;-3.210;2023-12-20T09:08:51;17.88;;;9.32;;
80987;SDS011;70452;39.386;-3.210;2023-12-20T09:11:20;17.08;;;8.18;;
80987;SDS011;70452;39.386;-3.210;2023-12-20T09:14:01;17.75;;;7.65;;
80987;SDS011;70452;39.386;-3.210;2023-12-20T09:16:35;16.23;;;7.03;;
80987;SDS011;70452;39.386;-3.210;2023-12-20T09:19:16;15.75;;;7.47;;
80987;SDS011;70452;39.386;-3.210;2023-12-20T09:21:49;14.57;;;7.07;;
80987;SDS011;70452;39.386;-3.210;2023-12-20T09:24:20;16.30;;;7.22;;
80987;SDS011;70452;39.386;-3.210;2023-12-20T09:26:55;15.18;;;7.18;;
80987;SDS011;70452;39.386;-3.210;2023-12-20T09:29:33;18.70;;;6.82;;
80987;SDS011;70452;39.386;-3.210;2023-12-20T09:32:08;14.98;;;6.28;;
80987;SDS011;70452;39.386;-3.210;2023-12-20T09:34:42;19.48;;;8.43;;
80987;SDS011;70452;39.386;-3.210;2023-12-20T09:37:20;18.27;;;9.05;;
80987;SDS011;70452;39.386;-3.210;2023-12-20T09:39:55;15.75;;;7.13;;
80987;SDS011;70452;39.386;-3.210;2023-12-20T09:45:28;17.35;;;7.40;;
80987;SDS011;70452;39.386;-3.210;2023-12-20T09:48:05;16.02;;;8.15;;
80987;SDS011;70452;39.386;-3.210;2023-12-20T09:50:52;20.77;;;9.65;;
80987;SDS011;70452;39.386;-3.210;2023-12-20T09:53:21;17.90;;;8.00;;
80987;SDS011;70452;39.386;-3.210;2023-12-20T09:55:58;15.35;;;7.53;;
80987;SDS011;70452;39.386;-3.210;2023-12-20T09:58:36;17.42;;;6.85;;
80987;SDS011;70452;39.386;-3.210;2023-12-20T10:01:06;19.45;;;8.98;;
80987;SDS011;70452;39.386;-3.210;2023-12-20T10:03:36;16.73;;;8.55;;
80987;SDS011;70452;39.386;-3.210;2023-12-20T10:06:06;17.83;;;9.65;;
80987;SDS011;70452;39.386;-3.210;2023-12-20T10:08:35;19.00;;;9.82;;
80987;SDS011;70452;39.386;-3.210;2023-12-20T10:11:11;18.23;;;8.35;;
80987;SDS011;70452;39.386;-3.210;2023-12-20T10:13:45;15.90;;;7.88;;
80987;SDS011;70452;39.386;-3.210;2023-12-20T10:16:52;16.40;;;8.75;;
80987;SDS011;70452;39.386;-3.210;2023-12-20T10:19:24;24.30;;;11.00;;
80987;SDS011;70452;39.386;-3.210;2023-12-20T10:21:57;23.30;;;8.93;;
80987;SDS011;70452;39.386;-3.210;2023-12-20T10:24:36;18.35;;;7.82;;
80987;SDS011;70452;39.386;-3.210;2023-12-20T10:27:28;17.20;;;8.32;;
80987;SDS011;70452;39.386;-3.210;2023-12-20T10:30:02;20.63;;;9.50;;
80987;SDS011;70452;39.386;-3.210;2023-12-20T10:32:45;21.70;;;10.27;;
80987;SDS011;70452;39.386;-3.210;2023-12-20T10:35:21;19.77;;;8.93;;
80987;SDS011;70452;39.386;-3.210;2023-12-20T10:38:02;19.42;;;9.07;;
80987;SDS011;70452;39.386;-3.210;2023-12-20T10:40:41;19.60;;;8.82;;
80987;SDS011;70452;39.386;-3.210;2023-12-20T10:43:28;22.70;;;8.75;;
80987;SDS011;70452;39.386;-3.210;2023-12-20T10:46:05;23.27;;;10.45;;
80987;SDS011;70452;39.386;-3.210;2023-12-20T10:48:45;25.27;;;11.15;;
80987;SDS011;70452;39.386;-3.210;2023-12-20T10:51:22;22.67;;;9.90;;
80987;SDS011;70452;39.386;-3.210;2023-12-20T10:54:00;23.42;;;10.13;;
80987;SDS011;70452;39.386;-3.210;2023-12-20T10:56:40;22.75;;;9.60;;
80987;SDS011;70452;39.386;-3.210;2023-12-20T10:59:21;28.05;;;9.75;;
80987;SDS011;70452;39.386;-3.210;2023-12-20T11:01:57;22.15;;;10.93;;
80987;SDS011;70452;39.386;-3.210;2023-12-20T11:07:54;21.77;;;8.52;;
80987;SDS011;70452;39.386;-3.210;2023-12-20T11:10:36;19.33;;;8.15;;
80987;SDS011;70452;39.386;-3.210;2023-12-20T11:13:39;19.27;;;8.38;;
80987;SDS011;70452;39.386;-3.210;2023-12-20T11:16:22;20.23;;;7.53;;
80987;SDS011;70452;39.386;-3.210;2023-12-20T11:19:15;17.95;;;7.53;;
80987;SDS011;70452;39.386;-3.210;2023-12-20T11:21:52;16.15;;;7.00;;
80987;SDS011;70452;39.386;-3.210;2023-12-20T11:24:52;19.00;;;8.05;;
80987;SDS011;70452;39.386;-3.210;2023-12-20T11:27:29;15.32;;;6.78;;
80987;SDS011;70452;39.386;-3.210;2023-12-20T11:30:24;17.85;;;6.60;;
80987;SDS011;70452;39.386;-3.210;2023-12-20T11:33:05;16.08;;;6.70;;
80987;SDS011;70452;39.386;-3.210;2023-12-20T11:35:39;13.93;;;6.65;;
80987;SDS011;70452;39.386;-3.210;2023-12-20T11:38:20;16.55;;;7.78;;
80987;SDS011;70452;39.386;-3.210;2023-12-20T11:40:53;18.40;;;7.40;;
80987;SDS011;70452;39.386;-3.210;2023-12-20T11:46:15;24.40;;;11.00;;
80987;SDS011;70452;39.386;-3.210;2023-12-20T11:48:50;17.45;;;7.57;;
80987;SDS011;70452;39.386;-3.210;2023-12-20T11:51:26;14.60;;;6.65;;
80987;SDS011;70452;39.386;-3.210;2023-12-20T11:54:04;13.75;;;6.60;;
80987;SDS011;70452;39.386;-3.210;2023-12-20T11:56:40;14.70;;;7.07;;
80987;SDS011;70452;39.386;-3.210;2023-12-20T11:59:17;13.93;;;6.47;;
80987;SDS011;70452;39.386;-3.210;2023-12-20T12:01:50;14.82;;;6.68;;
80987;SDS011;70452;39.386;-3.210;2023-12-20T12:04:29;13.50;;;5.80;;
80987;SDS011;70452;39.386;-3.210;2023-12-20T12:07:01;17.15;;;6.53;;
80987;SDS011;70452;39.386;-3.210;2023-12-20T12:09:37;16.25;;;6.85;;
80987;SDS011;70452;39.386;-3.210;2023-12-20T12:12:22;16.25;;;6.55;;
80987;SDS011;70452;39.386;-3.210;2023-12-20T12:15:04;36.08;;;16.75;;
80987;SDS011;70452;39.386;-3.210;2023-12-20T12:17:40;13.55;;;6.22;;
80987;SDS011;70452;39.386;-3.210;2023-12-20T12:20:19;14.18;;;5.53;;
80987;SDS011;70452;39.386;-3.210;2023-12-20T12:23:02;14.85;;;6.95;;
80987;SDS011;70452;39.386;-3.210;2023-12-20T12:25:37;17.17;;;6.95;;
80987;SDS011;70452;39.386;-3.210;2023-12-20T12:28:22;15.32;;;7.22;;
80987;SDS011;70452;39.386;-3.210;2023-12-20T12:31:00;18.45;;;7.68;;
80987;SDS011;70452;39.386;-3.210;2023-12-20T12:33:29;17.65;;;6.93;;
80987;SDS011;70452;39.386;-3.210;2023-12-20T12:36:09;17.85;;;7.32;;
80987;SDS011;70452;39.386;-3.210;2023-12-20T12:38:44;14.85;;;6.60;;
80987;SDS011;70452;39.386;-3.210;2023-12-20T12:41:35;14.90;;;7.15;;
80987;SDS011;70452;39.386;-3.210;2023-12-20T12:44:07;14.05;;;6.85;;
80987;SDS011;70452;39.386;-3.210;2023-12-20T12:46:44;17.98;;;7.07;;
80987;SDS011;70452;39.386;-3.210;2023-12-20T12:49:25;16.02;;;6.88;;
80987;SDS011;70452;39.386;-3.210;2023-12-20T12:52:09;15.38;;;6.78;;
80987;SDS011;70452;39.386;-3.210;2023-12-20T12:54:47;15.60;;;6.97;;
80987;SDS011;70452;39.386;-3.210;2023-12-20T12:57:14;15.65;;;6.57;;
80987;SDS011;70452;39.386;-3.210;2023-12-20T12:59:52;15.57;;;5.75;;
80987;SDS011;70452;39.386;-3.210;2023-12-20T13:02:31;15.50;;;6.28;;
80987;SDS011;70452;39.386;-3.210;2023-12-20T13:05:11;16.60;;;6.05;;
80987;SDS011;70452;39.386;-3.210;2023-12-20T13:07:40;13.57;;;5.05;;
80987;SDS011;70452;39.386;-3.210;2023-12-20T13:10:19;12.25;;;4.70;;
80987;SDS011;70452;39.386;-3.210;2023-12-20T13:13:00;12.35;;;4.45;;
80987;SDS011;70452;39.386;-3.210;2023-12-20T13:15:38;10.70;;;4.32;;
80987;SDS011;70452;39.386;-3.210;2023-12-20T13:18:22;11.02;;;3.80;;
80987;SDS011;70452;39.386;-3.210;2023-12-20T13:21:02;11.55;;;3.28;;
80987;SDS011;70452;39.386;-3.210;2023-12-20T13:23:49;9.95;;;3.00;;
80987;SDS011;70452;39.386;-3.210;2023-12-20T13:26:22;8.75;;;3.03;;
80987;SDS011;70452;39.386;-3.210;2023-12-20T13:28:58;10.07;;;2.85;;
80987;SDS011;70452;39.386;-3.210;2023-12-20T13:31:37;9.50;;;3.60;;
80987;SDS011;70452;39.386;-3.210;2023-12-20T13:34:12;11.40;;;3.60;;
80987;SDS011;70452;39.386;-3.210;2023-12-20T13:36:53;12.60;;;3.78;;
80987;SDS011;70452;39.386;-3.210;2023-12-20T13:39:29;8.65;;;3.13;;
80987;SDS011;70452;39.386;-3.210;2023-12-20T13:42:12;7.72;;;2.50;;
80987;SDS011;70452;39.386;-3.210;2023-12-20T13:44:42;10.13;;;3.13;;
80987;SDS011;70452;39.386;-3.210;2023-12-20T13:47:30;8.23;;;2.60;;
80987;SDS011;70452;39.386;-3.210;2023-12-20T13:50:09;6.53;;;1.92;;
80987;SDS011;70452;39.386;-3.210;2023-12-20T13:52:56;5.68;;;1.30;;
80987;SDS011;70452;39.386;-3.210;2023-12-20T13:55:32;3.45;;;0.65;;
80987;SDS011;70452;39.386;-3.210;2023-12-20T13:58:08;3.13;;;0.30;;
80987;SDS011;70452;39.386;-3.210;2023-12-20T14:00:56;1.98;;;0.25;;
80987;SDS011;70452;39.386;-3.210;2023-12-20T14:03:29;3.00;;;0.40;;
80987;SDS011;70452;39.386;-3.210;2023-12-20T14:05:58;2.78;;;0.40;;
80987;SDS011;70452;39.386;-3.210;2023-12-20T14:08:32;2.58;;;0.75;;
80987;SDS011;70452;39.386;-3.210;2023-12-20T14:11:03;5.65;;;0.40;;
80987;SDS011;70452;39.386;-3.210;2023-12-20T14:13:39;3.05;;;0.40;;
80987;SDS011;70452;39.386;-3.210;2023-12-20T14:16:15;2.45;;;0.40;;
80987;SDS011;70452;39.386;-3.210;2023-12-20T14:18:49;3.90;;;0.50;;
80987;SDS011;70452;39.386;-3.210;2023-12-20T14:21:17;3.45;;;0.47;;
80987;SDS011;70452;39.386;-3.210;2023-12-20T14:23:51;4.78;;;0.77;;
80987;SDS011;70452;39.386;-3.210;2023-12-20T14:26:33;3.10;;;0.40;;
80987;SDS011;70452;39.386;-3.210;2023-12-20T14:29:10;3.78;;;0.40;;
80987;SDS011;70452;39.386;-3.210;2023-12-20T14:31:46;3.63;;;0.40;;
80987;SDS011;70452;39.386;-3.210;2023-12-20T14:34:25;4.07;;;0.60;;
80987;SDS011;70452;39.386;-3.210;2023-12-20T14:36:50;5.47;;;0.90;;
80987;SDS011;70452;39.386;-3.210;2023-12-20T14:39:30;4.90;;;0.98;;
80987;SDS011;70452;39.386;-3.210;2023-12-20T14:42:09;5.43;;;0.90;;
80987;SDS011;70452;39.386;-3.210;2023-12-20T14:44:45;5.45;;;1.05;;
80987;SDS011;70452;39.386;-3.210;2023-12-20T14:47:19;5.78;;;1.05;;
80987;SDS011;70452;39.386;-3.210;2023-12-20T14:50:03;5.57;;;0.90;;
80987;SDS011;70452;39.386;-3.210;2023-12-20T14:52:40;5.07;;;0.98;;
80987;SDS011;70452;39.386;-3.210;2023-12-20T14:55:13;4.53;;;1.00;;
80987;SDS011;70452;39.386;-3.210;2023-12-20T14:57:45;4.50;;;1.15;;
80987;SDS011;70452;39.386;-3.210;2023-12-20T15:00:22;5.45;;;1.02;;
80987;SDS011;70452;39.386;-3.210;2023-12-20T15:02:52;9.73;;;1.42;;
80987;SDS011;70452;39.386;-3.210;2023-12-20T15:05:29;4.88;;;1.00;;
80987;SDS011;70452;39.386;-3.210;2023-12-20T15:08:06;5.05;;;0.93;;
80987;SDS011;70452;39.386;-3.210;2023-12-20T15:10:40;5.50;;;1.30;;
80987;SDS011;70452;39.386;-3.210;2023-12-20T15:13:22;4.90;;;0.80;;
80987;SDS011;70452;39.386;-3.210;2023-12-20T15:16:02;4.53;;;0.90;;
80987;SDS011;70452;39.386;-3.210;2023-12-20T15:18:41;5.53;;;1.23;;
80987;SDS011;70452;39.386;-3.210;2023-12-20T15:21:19;9.30;;;1.25;;
80987;SDS011;70452;39.386;-3.210;2023-12-20T15:24:08;5.07;;;1.30;;
80987;SDS011;70452;39.386;-3.210;2023-12-20T15:26:51;4.72;;;1.00;;
80987;SDS011;70452;39.386;-3.210;2023-12-20T15:29:20;5.40;;;1.23;;
80987;SDS011;70452;39.386;-3.210;2023-12-20T15:35:02;7.70;;;0.80;;
80987;SDS011;70452;39.386;-3.210;2023-12-20T15:37:38;5.80;;;1.20;;
80987;SDS011;70452;39.386;-3.210;2023-12-20T15:40:12;4.35;;;0.80;;
80987;SDS011;70452;39.386;-3.210;2023-12-20T15:42:52;2.78;;;0.28;;
80987;SDS011;70452;39.386;-3.210;2023-12-20T15:45:41;2.80;;;0.10;;
80987;SDS011;70452;39.386;-3.210;2023-12-20T15:48:29;3.28;;;0.28;;
80987;SDS011;70452;39.386;-3.210;2023-12-20T15:50:58;1.35;;;0.10;;
80987;SDS011;70452;39.386;-3.210;2023-12-20T15:53:41;2.33;;;0.25;;
80987;SDS011;70452;39.386;-3.210;2023-12-20T15:56:41;3.67;;;0.20;;
80987;SDS011;70452;39.386;-3.210;2023-12-20T15:59:23;2.63;;;0.20;;
80987;SDS011;70452;39.386;-3.210;2023-12-20T16:05:01;2.65;;;0.20;;
80987;SDS011;70452;39.386;-3.210;2023-12-20T16:07:36;5.10;;;0.20;;
80987;SDS011;70452;39.386;-3.210;2023-12-20T16:12:59;2.63;;;0.15;;
80987;SDS011;70452;39.386;-3.210;2023-12-20T16:15:37;3.53;;;0.10;;
80987;SDS011;70452;39.386;-3.210;2023-12-20T16:18:03;1.88;;;0.10;;
80987;SDS011;70452;39.386;-3.210;2023-12-20T16:20:39;1.60;;;0.10;;
80987;SDS011;70452;39.386;-3.210;2023-12-20T16:23:23;1.58;;;0.10;;
80987;SDS011;70452;39.386;-3.210;2023-12-20T16:26:06;2.75;;;0.20;;
80987;SDS011;70452;39.386;-3.210;2023-12-20T16:28:37;2.63;;;0.10;;
80987;SDS011;70452;39.386;-3.210;2023-12-20T16:31:17;1.88;;;0.10;;
80987;SDS011;70452;39.386;-3.210;2023-12-20T16:33:46;4.00;;;0.52;;
80987;SDS011;70452;39.386;-3.210;2023-12-20T16:36:24;1.65;;;0.10;;
80987;SDS011;70452;39.386;-3.210;2023-12-20T16:39:25;2.95;;;0.40;;
80987;SDS011;70452;39.386;-3.210;2023-12-20T16:41:57;2.45;;;0.20;;
80987;SDS011;70452;39.386;-3.210;2023-12-20T16:44:45;3.35;;;0.40;;